createdAt,value
2023-12-12T00:01:29.479Z,100.00
2023-12-12T00:03:57.022Z,100.00
2023-12-12T00:06:26.134Z,100.00
2023-12-12T00:08:53.280Z,100.00
2023-12-12T00:11:21.162Z,100.00
2023-12-12T00:13:48.883Z,100.00
2023-12-12T00:16:18.958Z,100.00
2023-12-12T00:18:46.241Z,100.00
2023-12-12T00:21:14.464Z,100.00
2023-12-12T00:23:41.918Z,100.00
2023-12-12T00:26:14.408Z,100.00
2023-12-12T00:28:42.111Z,100.00
2023-12-12T00:31:09.802Z,100.00
2023-12-12T00:33:36.857Z,100.00
2023-12-12T00:36:04.876Z,100.00
2023-12-12T00:38:35.060Z,100.00
2023-12-12T00:41:02.176Z,100.00
2023-12-12T00:43:29.381Z,100.00
2023-12-12T00:45:57.777Z,100.00
2023-12-12T00:48:27.970Z,100.00
2023-12-12T00:50:55.128Z,100.00
2023-12-12T00:53:22.085Z,100.00
2023-12-12T00:55:49.080Z,100.00
2023-12-12T00:58:16.286Z,100.00
2023-12-12T01:00:45.738Z,100.00
2023-12-12T01:03:12.793Z,100.00
2023-12-12T01:05:39.926Z,100.00
2023-12-12T01:08:07.245Z,100.00
2023-12-12T01:10:37.842Z,100.00
2023-12-12T01:13:05.727Z,100.00
2023-12-12T01:15:32.853Z,100.00
2023-12-12T01:18:07.913Z,100.00
2023-12-12T01:20:35.567Z,100.00
2023-12-12T01:23:02.558Z,100.00
2023-12-12T01:25:32.970Z,100.00
2023-12-12T01:28:00.989Z,100.00
2023-12-12T01:30:27.997Z,100.00
2023-12-12T01:32:55.368Z,100.00
2023-12-12T01:35:25.365Z,100.00
2023-12-12T01:37:55.433Z,100.00
2023-12-12T01:40:23.881Z,100.00
2023-12-12T01:42:51.734Z,100.00
2023-12-12T01:45:19.958Z,100.00
2023-12-12T01:47:48.401Z,100.00
2023-12-12T01:50:16.189Z,100.00
2023-12-12T01:52:44.022Z,100.00
2023-12-12T01:55:14.290Z,100.00
2023-12-12T01:57:41.907Z,100.00
2023-12-12T02:00:10.420Z,100.00
2023-12-12T02:02:40.247Z,100.00
2023-12-12T02:05:10.866Z,100.00
2023-12-12T02:07:38.574Z,100.00
2023-12-12T02:10:05.922Z,100.00
2023-12-12T02:12:34.207Z,100.00
2023-12-12T02:15:01.374Z,100.00
2023-12-12T02:17:28.594Z,100.00
2023-12-12T02:19:56.145Z,100.00
2023-12-12T02:22:23.328Z,100.00
2023-12-12T02:24:50.496Z,100.00
2023-12-12T02:27:18.323Z,100.00
2023-12-12T02:29:45.465Z,100.00
2023-12-12T02:32:15.621Z,100.00
2023-12-12T02:34:42.947Z,100.00
2023-12-12T02:37:10.359Z,100.00
2023-12-12T02:39:43.316Z,100.00
2023-12-12T02:42:10.372Z,100.00
2023-12-12T02:44:37.423Z,100.00
2023-12-12T02:47:04.600Z,100.00
2023-12-12T02:49:31.871Z,100.00
2023-12-12T02:51:59.473Z,100.00
2023-12-12T02:54:26.789Z,100.00
2023-12-12T02:56:53.958Z,100.00
2023-12-12T02:59:20.977Z,100.00
2023-12-12T03:01:51.544Z,100.00
2023-12-12T03:04:18.831Z,100.00
2023-12-12T03:06:46.026Z,100.00
2023-12-12T03:09:19.884Z,100.00
2023-12-12T03:11:47.225Z,100.00
2023-12-12T03:14:14.280Z,100.00
2023-12-12T03:16:41.752Z,100.00
2023-12-12T03:19:09.579Z,100.00
2023-12-12T03:21:36.786Z,100.00
2023-12-12T03:24:04.140Z,100.00
2023-12-12T03:26:31.147Z,100.00
2023-12-12T03:28:59.375Z,100.00
2023-12-12T03:31:26.609Z,100.00
2023-12-12T03:33:56.296Z,100.00
2023-12-12T03:36:34.430Z,100.00
2023-12-12T03:39:11.839Z,100.00
2023-12-12T03:41:42.284Z,100.00
2023-12-12T03:44:15.080Z,100.00
2023-12-12T03:46:43.124Z,100.00
2023-12-12T03:49:10.693Z,100.00
2023-12-12T03:51:41.976Z,100.00
2023-12-12T03:54:13.270Z,100.00
2023-12-12T03:56:40.609Z,100.00
2023-12-12T03:59:08.472Z,100.00
2023-12-12T04:01:36.004Z,100.00
2023-12-12T04:04:03.351Z,100.00
2023-12-12T04:06:39.080Z,100.00
2023-12-12T04:09:06.172Z,100.00
2023-12-12T04:11:36.316Z,100.00
2023-12-12T04:14:03.530Z,100.00
2023-12-12T04:16:36.664Z,100.00
2023-12-12T04:19:07.045Z,100.00
2023-12-12T04:21:34.104Z,100.00
2023-12-12T04:24:04.450Z,100.00
2023-12-12T04:26:31.506Z,100.00
2023-12-12T04:29:02.128Z,100.00
2023-12-12T04:31:32.419Z,100.00
2023-12-12T04:33:59.827Z,100.00
2023-12-12T04:36:29.556Z,100.00
2023-12-12T04:39:02.554Z,100.00
2023-12-12T04:41:32.707Z,100.00
2023-12-12T04:43:59.815Z,100.00
2023-12-12T04:46:26.893Z,100.00
2023-12-12T04:48:54.283Z,100.00
2023-12-12T04:51:21.418Z,100.00
2023-12-12T04:53:53.379Z,100.00
2023-12-12T04:56:20.607Z,100.00
2023-12-12T04:58:50.991Z,100.00
2023-12-12T05:01:18.464Z,100.00
2023-12-12T05:03:57.249Z,100.00
2023-12-12T05:06:25.147Z,100.00
2023-12-12T05:08:52.539Z,100.00
2023-12-12T05:11:25.929Z,100.00
2023-12-12T05:13:54.555Z,100.00
2023-12-12T05:16:31.044Z,100.00
2023-12-12T05:19:06.438Z,100.00
2023-12-12T05:21:34.258Z,100.00
2023-12-12T05:24:41.053Z,100.00
2023-12-12T05:27:32.602Z,100.00
2023-12-12T05:30:20.638Z,100.00
2023-12-12T05:32:48.107Z,100.00
2023-12-12T05:35:18.443Z,100.00
2023-12-12T05:37:48.772Z,100.00
2023-12-12T05:40:18.831Z,100.00
2023-12-12T05:42:46.083Z,100.00
2023-12-12T05:45:16.559Z,100.00
2023-12-12T05:48:04.725Z,100.00
2023-12-12T05:50:37.393Z,100.00
2023-12-12T05:53:09.541Z,100.00
2023-12-12T05:55:42.085Z,100.00
2023-12-12T05:58:12.422Z,100.00
2023-12-12T06:00:46.012Z,100.00
2023-12-12T06:03:19.623Z,100.00
2023-12-12T06:05:47.032Z,100.00
2023-12-12T06:08:37.153Z,100.00
2023-12-12T06:11:04.844Z,100.00
2023-12-12T06:13:57.638Z,100.00
2023-12-12T06:16:39.861Z,100.00
2023-12-12T06:19:22.425Z,100.00
2023-12-12T06:21:54.818Z,100.00
2023-12-12T06:24:24.942Z,100.00
2023-12-12T06:27:01.611Z,100.00
2023-12-12T06:29:29.150Z,100.00
2023-12-12T06:32:07.229Z,100.00
2023-12-12T06:34:40.936Z,100.00
2023-12-12T06:37:09.095Z,100.00
2023-12-12T06:39:40.354Z,100.00
2023-12-12T06:42:26.530Z,100.00
2023-12-12T06:45:02.701Z,100.00
2023-12-12T06:47:29.972Z,100.00
2023-12-12T06:50:00.721Z,100.00
2023-12-12T06:52:28.169Z,100.00
2023-12-12T06:55:20.329Z,100.00
2023-12-12T06:57:47.300Z,100.00
2023-12-12T07:00:15.900Z,100.00
2023-12-12T07:08:47.203Z,100.00
2023-12-12T07:11:17.008Z,100.00
2023-12-12T07:13:46.878Z,100.00
2023-12-12T07:16:17.224Z,100.00
2023-12-12T07:18:44.617Z,100.00
2023-12-12T07:21:16.496Z,100.00
2023-12-12T07:23:57.004Z,100.00
2023-12-12T07:26:26.024Z,100.00
2023-12-12T07:28:59.628Z,100.00
2023-12-12T07:31:34.237Z,100.00
2023-12-12T07:34:04.309Z,100.00
2023-12-12T07:36:35.224Z,100.00
2023-12-12T07:39:06.954Z,100.00
2023-12-12T07:41:33.965Z,100.00
2023-12-12T07:44:13.604Z,100.00
2023-12-12T07:46:47.922Z,100.00
2023-12-12T07:49:16.386Z,100.00
2023-12-12T07:51:49.117Z,100.00
2023-12-12T07:54:16.087Z,100.00
2023-12-12T07:56:49.243Z,100.00
2023-12-12T07:59:19.524Z,100.00
2023-12-12T08:01:46.883Z,100.00
2023-12-12T08:04:14.544Z,100.00
2023-12-12T08:06:45.122Z,100.00
2023-12-12T08:09:12.036Z,100.00
2023-12-12T08:11:39.775Z,100.00
2023-12-12T08:14:07.425Z,100.00
2023-12-12T08:16:34.468Z,100.00
2023-12-12T08:19:02.791Z,100.00
2023-12-12T08:21:31.621Z,100.00
2023-12-12T08:24:05.074Z,100.00
2023-12-12T08:26:32.253Z,100.00
2023-12-12T08:29:05.291Z,100.00
2023-12-12T08:32:02.051Z,100.00
2023-12-12T08:34:31.418Z,100.00
2023-12-12T08:37:09.387Z,100.00
2023-12-12T08:42:29.015Z,100.00
2023-12-12T08:45:03.166Z,100.00
2023-12-12T08:47:36.553Z,100.00
2023-12-12T08:50:11.183Z,100.00
2023-12-12T08:52:38.538Z,100.00
2023-12-12T08:55:10.074Z,100.00
2023-12-12T08:57:41.362Z,100.00
2023-12-12T09:00:10.323Z,100.00
2023-12-12T09:02:41.651Z,100.00
2023-12-12T09:05:12.274Z,100.00
2023-12-12T09:07:39.244Z,100.00
2023-12-12T09:10:08.044Z,100.00
2023-12-12T09:12:35.968Z,100.00
2023-12-12T09:15:03.738Z,100.00
2023-12-12T09:17:42.459Z,100.00
2023-12-12T09:20:29.731Z,100.00
2023-12-12T09:23:11.639Z,100.00
2023-12-12T09:26:02.746Z,100.00
2023-12-12T09:28:33.237Z,100.00
2023-12-12T09:31:00.559Z,100.00
2023-12-12T09:33:27.753Z,100.00
2023-12-12T09:35:54.945Z,100.00
2023-12-12T09:38:21.982Z,100.00
2023-12-12T09:40:57.714Z,100.00
2023-12-12T09:43:28.649Z,100.00
2023-12-12T09:45:59.606Z,100.00
2023-12-12T09:48:30.235Z,100.00
2023-12-12T09:51:00.923Z,100.00
2023-12-12T09:53:32.139Z,100.00
2023-12-12T09:56:04.748Z,100.00
2023-12-12T09:58:32.305Z,100.00
2023-12-12T10:01:02.231Z,100.00
2023-12-12T10:03:34.542Z,100.00
2023-12-12T10:06:05.529Z,100.00
2023-12-12T10:08:32.766Z,100.00
2023-12-12T10:11:00.177Z,100.00
2023-12-12T10:13:27.716Z,100.00
2023-12-12T10:15:58.759Z,100.00
2023-12-12T10:18:26.608Z,100.00
2023-12-12T10:20:53.840Z,100.00
2023-12-12T10:23:30.974Z,100.00
2023-12-12T10:26:02.229Z,100.00
2023-12-12T10:28:34.506Z,100.00
2023-12-12T10:31:21.463Z,100.00
2023-12-12T10:33:55.413Z,100.00
2023-12-12T10:36:38.177Z,100.00
2023-12-12T10:39:16.582Z,100.00
2023-12-12T10:41:56.886Z,100.00
2023-12-12T10:44:36.670Z,100.00
2023-12-12T10:47:14.176Z,100.00
2023-12-12T10:49:48.655Z,100.00
2023-12-12T10:52:24.794Z,100.00
2023-12-12T10:54:54.765Z,100.00
2023-12-12T11:00:38.219Z,100.00
2023-12-12T11:03:08.723Z,100.00
2023-12-12T11:05:35.715Z,100.00
2023-12-12T11:08:06.489Z,100.00
2023-12-12T11:13:41.331Z,100.00
2023-12-12T11:16:09.830Z,100.00
2023-12-12T11:25:12.524Z,100.00
2023-12-12T11:27:41.682Z,100.00
2023-12-12T11:30:09.615Z,100.00
2023-12-12T11:32:52.228Z,100.00
2023-12-12T11:35:40.786Z,100.00
2023-12-12T11:38:32.263Z,100.00
2023-12-12T11:41:15.355Z,100.00
2023-12-12T11:43:55.444Z,100.00
2023-12-12T11:46:48.295Z,100.00
2023-12-12T11:49:58.515Z,100.00
2023-12-12T11:52:40.928Z,100.00
2023-12-12T11:55:09.664Z,100.00
2023-12-12T11:57:56.611Z,100.00
2023-12-12T12:00:27.283Z,100.00
2023-12-12T12:02:54.749Z,100.00
2023-12-12T12:05:25.652Z,100.00
2023-12-12T12:07:59.448Z,100.00
2023-12-12T12:10:29.274Z,100.00
2023-12-12T12:12:59.229Z,100.00
2023-12-12T12:15:28.436Z,100.00
2023-12-12T12:18:01.488Z,100.00
2023-12-12T12:20:28.590Z,100.00
2023-12-12T12:22:55.862Z,100.00
2023-12-12T12:28:07.410Z,100.00
2023-12-12T12:30:46.180Z,100.00
2023-12-12T12:33:15.204Z,100.00
2023-12-12T12:35:53.057Z,100.00
2023-12-12T12:38:34.553Z,100.00
2023-12-12T12:42:24.516Z,100.00
2023-12-12T12:44:55.981Z,100.00
2023-12-12T12:47:22.976Z,99.89
2023-12-12T12:49:57.154Z,99.70
2023-12-12T12:52:24.125Z,98.71
2023-12-12T12:54:52.067Z,99.25
2023-12-12T12:57:19.536Z,98.67
2023-12-12T12:59:46.847Z,98.25
2023-12-12T13:02:13.948Z,97.51
2023-12-12T13:04:44.414Z,98.41
2023-12-12T13:07:16.238Z,97.22
2023-12-12T13:09:44.574Z,98.69
2023-12-12T13:12:11.970Z,98.09
2023-12-12T13:14:39.161Z,97.77
2023-12-12T13:17:13.069Z,97.59
2023-12-12T13:19:43.237Z,98.29
2023-12-12T13:22:13.598Z,99.56
2023-12-12T13:24:41.117Z,100.00
2023-12-12T13:27:08.043Z,99.73
2023-12-12T13:29:38.618Z,99.40
2023-12-12T13:32:06.309Z,99.93
2023-12-12T13:34:36.210Z,100.00
2023-12-12T13:37:22.517Z,100.00
2023-12-12T13:40:04.418Z,100.00
2023-12-12T13:42:34.938Z,100.00
2023-12-12T13:45:21.601Z,100.00
2023-12-12T13:47:53.175Z,100.00
2023-12-12T13:50:20.672Z,100.00
2023-12-12T13:52:47.574Z,100.00
2023-12-12T13:55:16.623Z,100.00
2023-12-12T13:57:46.591Z,100.00
2023-12-12T14:00:28.685Z,100.00
2023-12-12T14:02:55.846Z,100.00
2023-12-12T14:05:30.277Z,100.00
2023-12-12T14:08:07.918Z,100.00
2023-12-12T14:10:39.059Z,100.00
2023-12-12T14:13:35.795Z,100.00
2023-12-12T14:16:05.745Z,100.00
2023-12-12T14:18:34.413Z,100.00
2023-12-12T14:21:01.554Z,100.00
2023-12-12T14:24:10.081Z,100.00
2023-12-12T14:26:47.022Z,100.00
2023-12-12T14:29:20.641Z,100.00
2023-12-12T14:31:52.914Z,100.00
2023-12-12T14:34:28.998Z,100.00
2023-12-12T14:37:04.050Z,100.00
2023-12-12T14:39:33.439Z,100.00
2023-12-12T14:45:22.754Z,100.00
2023-12-12T14:48:15.983Z,100.00
2023-12-12T14:51:06.286Z,100.00
2023-12-12T14:53:33.121Z,100.00
2023-12-12T14:56:00.244Z,100.00
2023-12-12T14:58:27.560Z,100.00
2023-12-12T15:00:55.168Z,100.00
2023-12-12T15:03:24.610Z,100.00
2023-12-12T15:05:54.260Z,100.00
2023-12-12T15:08:25.641Z,100.00
2023-12-12T15:11:08.256Z,100.00
2023-12-12T15:13:44.392Z,100.00
2023-12-12T15:16:12.900Z,100.00
2023-12-12T15:18:40.604Z,100.00
2023-12-12T15:21:13.593Z,100.00
2023-12-12T15:23:50.523Z,100.00
2023-12-12T15:26:17.732Z,100.00
2023-12-12T15:28:45.570Z,100.00
2023-12-12T15:31:12.804Z,100.00
2023-12-12T15:33:42.441Z,100.00
2023-12-12T15:36:10.208Z,100.00
2023-12-12T15:38:37.855Z,100.00
2023-12-12T15:41:06.790Z,100.00
2023-12-12T15:43:46.488Z,100.00
2023-12-12T15:46:19.989Z,100.00
2023-12-12T15:48:47.628Z,100.00
2023-12-12T15:51:17.277Z,100.00
2023-12-12T15:53:44.935Z,100.00
2023-12-12T15:56:13.138Z,100.00
2023-12-12T15:58:43.534Z,100.00
2023-12-12T16:01:14.389Z,100.00
2023-12-12T16:03:44.641Z,100.00
2023-12-12T16:06:12.126Z,100.00
2023-12-12T16:08:40.562Z,100.00
2023-12-12T16:11:07.893Z,100.00
2023-12-12T16:16:19.513Z,100.00
2023-12-12T16:18:48.984Z,100.00
2023-12-12T16:21:16.216Z,100.00
2023-12-12T16:23:46.353Z,100.00
2023-12-12T16:26:22.466Z,100.00
2023-12-12T16:28:50.105Z,100.00
2023-12-12T16:31:20.414Z,100.00
2023-12-12T16:33:47.806Z,100.00
2023-12-12T16:36:15.083Z,100.00
2023-12-12T16:38:44.663Z,100.00
2023-12-12T16:41:14.054Z,100.00
2023-12-12T16:43:41.160Z,100.00
2023-12-12T16:46:08.238Z,100.00
2023-12-12T16:48:35.636Z,100.00
2023-12-12T16:51:04.610Z,100.00
2023-12-12T16:53:35.899Z,100.00
2023-12-12T16:56:10.115Z,100.00
2023-12-12T16:58:37.897Z,100.00
2023-12-12T17:01:06.116Z,100.00
2023-12-12T17:03:33.931Z,100.00
2023-12-12T17:06:05.022Z,100.00
2023-12-12T17:08:35.260Z,100.00
2023-12-12T17:11:11.652Z,100.00
2023-12-12T17:13:53.599Z,100.00
2023-12-12T17:16:32.025Z,100.00
2023-12-12T17:19:03.153Z,100.00
2023-12-12T17:21:30.296Z,100.00
2023-12-12T17:23:57.952Z,100.00
2023-12-12T17:26:25.840Z,100.00
2023-12-12T17:28:53.497Z,100.00
2023-12-12T17:31:26.554Z,100.00
2023-12-12T17:34:02.972Z,100.00
2023-12-12T17:36:31.548Z,100.00
2023-12-12T17:38:58.529Z,100.00
2023-12-12T17:41:28.846Z,100.00
2023-12-12T17:43:56.194Z,100.00
2023-12-12T17:46:25.935Z,100.00
2023-12-12T17:48:59.530Z,100.00
2023-12-12T17:51:26.631Z,100.00
2023-12-12T17:53:53.902Z,100.00
2023-12-12T17:56:22.701Z,100.00
2023-12-12T17:58:54.026Z,100.00
2023-12-12T18:01:21.432Z,100.00
2023-12-12T18:03:51.208Z,100.00
2023-12-12T18:06:32.459Z,100.00
2023-12-12T18:09:00.275Z,100.00
2023-12-12T18:11:57.744Z,100.00
2023-12-12T18:14:29.329Z,100.00
2023-12-12T18:16:57.251Z,100.00
2023-12-12T18:19:30.938Z,100.00
2023-12-12T18:21:58.739Z,100.00
2023-12-12T18:24:34.791Z,100.00
2023-12-12T18:27:10.744Z,100.00
2023-12-12T18:29:37.926Z,100.00
2023-12-12T18:32:13.339Z,100.00
2023-12-12T18:37:30.419Z,100.00
2023-12-12T18:40:09.636Z,100.00
2023-12-12T18:42:54.830Z,100.00
2023-12-12T18:45:27.388Z,100.00
2023-12-12T18:48:12.551Z,100.00
2023-12-12T18:50:45.872Z,100.00
2023-12-12T18:53:15.732Z,100.00
2023-12-12T18:55:54.640Z,100.00
2023-12-12T18:58:22.291Z,100.00
2023-12-12T19:00:52.455Z,100.00
2023-12-12T19:03:20.054Z,100.00
2023-12-12T19:05:56.224Z,100.00
2023-12-12T19:08:32.860Z,100.00
2023-12-12T19:11:00.049Z,100.00
2023-12-12T19:13:36.813Z,100.00
2023-12-12T19:16:05.978Z,100.00
2023-12-12T19:18:33.272Z,100.00
2023-12-12T19:21:00.851Z,100.00
2023-12-12T19:23:34.146Z,100.00
2023-12-12T19:26:01.832Z,100.00
2023-12-12T19:28:32.061Z,100.00
2023-12-12T19:30:59.611Z,100.00
2023-12-12T19:33:29.775Z,100.00
2023-12-12T19:36:17.511Z,100.00
2023-12-12T19:38:44.701Z,100.00
2023-12-12T19:41:12.092Z,100.00
2023-12-12T19:43:42.185Z,100.00
2023-12-12T19:46:13.032Z,100.00
2023-12-12T19:48:43.795Z,100.00
2023-12-12T19:51:11.014Z,100.00
2023-12-12T19:53:37.928Z,100.00
2023-12-12T19:56:11.268Z,100.00
2023-12-12T19:58:41.812Z,100.00
2023-12-12T20:01:18.926Z,100.00
2023-12-12T20:03:55.565Z,100.00
2023-12-12T20:06:28.118Z,100.00
2023-12-12T20:08:58.486Z,100.00
2023-12-12T20:11:54.593Z,100.00
2023-12-12T20:14:21.732Z,100.00
2023-12-12T20:16:56.037Z,100.00
2023-12-12T20:19:29.464Z,100.00
2023-12-12T20:22:02.649Z,100.00
2023-12-12T20:24:41.810Z,100.00
2023-12-12T20:27:48.723Z,100.00
2023-12-12T20:33:27.985Z,100.00
2023-12-12T20:35:56.663Z,100.00
2023-12-12T20:38:30.010Z,100.00
2023-12-12T20:40:57.896Z,100.00
2023-12-12T20:43:28.059Z,100.00
2023-12-12T20:45:55.342Z,100.00
2023-12-12T20:48:29.214Z,100.00
2023-12-12T20:50:56.765Z,100.00
2023-12-12T20:53:24.877Z,100.00
2023-12-12T20:56:48.774Z,100.00
2023-12-12T20:59:26.402Z,100.00
2023-12-12T21:01:53.636Z,100.00
2023-12-12T21:04:20.918Z,100.00
2023-12-12T21:07:00.593Z,100.00
2023-12-12T21:09:31.628Z,100.00
2023-12-12T21:11:59.006Z,100.00
2023-12-12T21:14:28.849Z,100.00
2023-12-12T21:16:59.406Z,100.00
2023-12-12T21:19:26.828Z,100.00
2023-12-12T21:21:54.309Z,100.00
2023-12-12T21:24:23.976Z,100.00
2023-12-12T21:26:54.160Z,100.00
2023-12-12T21:29:24.065Z,100.00
2023-12-12T21:31:51.111Z,100.00
2023-12-12T21:34:18.420Z,100.00
2023-12-12T21:36:46.586Z,100.00
2023-12-12T21:39:16.267Z,100.00
2023-12-12T21:41:46.187Z,100.00
2023-12-12T21:48:15.181Z,100.00
2023-12-12T21:51:03.301Z,100.00
2023-12-12T21:53:34.541Z,100.00
2023-12-12T21:56:11.467Z,100.00
2023-12-12T21:58:51.254Z,100.00
2023-12-12T22:01:19.540Z,100.00
2023-12-12T22:03:46.969Z,100.00
2023-12-12T22:06:14.436Z,100.00
2023-12-12T22:08:43.610Z,100.00
2023-12-12T22:11:21.678Z,100.00
2023-12-12T22:13:59.046Z,100.00
2023-12-12T22:16:29.577Z,100.00
2023-12-12T22:18:59.656Z,100.00
2023-12-12T22:21:28.515Z,100.00
2023-12-12T22:23:56.508Z,100.00
2023-12-12T22:26:24.237Z,100.00
2023-12-12T22:28:51.447Z,100.00
2023-12-12T22:31:18.467Z,100.00
2023-12-12T22:33:45.472Z,100.00
2023-12-12T22:36:20.224Z,100.00
2023-12-12T22:38:48.093Z,100.00
2023-12-12T22:41:22.542Z,100.00
2023-12-12T22:43:49.965Z,100.00
2023-12-12T22:46:22.476Z,100.00
2023-12-12T22:48:54.809Z,100.00
2023-12-12T22:51:25.012Z,100.00
2023-12-12T22:53:52.020Z,100.00
2023-12-12T22:56:46.092Z,100.00
2023-12-12T22:59:13.140Z,100.00
2023-12-12T23:01:49.800Z,100.00
2023-12-12T23:07:01.447Z,100.00
2023-12-12T23:13:01.218Z,100.00
2023-12-12T23:15:35.034Z,100.00
2023-12-12T23:18:23.571Z,100.00
2023-12-12T23:20:52.719Z,100.00
2023-12-12T23:23:21.426Z,100.00
2023-12-12T23:25:58.761Z,100.00
2023-12-12T23:28:26.500Z,100.00
2023-12-12T23:31:08.118Z,100.00
2023-12-12T23:33:57.975Z,100.00
2023-12-12T23:36:45.103Z,100.00
2023-12-12T23:39:12.379Z,100.00
2023-12-12T23:41:47.057Z,100.00
2023-12-12T23:44:17.987Z,100.00
2023-12-12T23:46:45.901Z,100.00
2023-12-12T23:49:15.236Z,100.00
2023-12-12T23:51:43.116Z,100.00
2023-12-12T23:54:10.639Z,100.00
2023-12-12T23:56:44.411Z,100.00
2023-12-12T23:59:11.497Z,100.00
